sensor_id;sensor_type;location;lat;lon;timestamp;P1;durP1;ratioP1;P2;durP2;ratioP2
5630;SDS011;2837;50.990;7.124;2022-08-21T05:01:51;155.97;;;11.13;;
5630;SDS011;2837;50.990;7.124;2022-08-21T05:04:20;154.43;;;11.10;;
5630;SDS011;2837;50.990;7.124;2022-08-21T05:06:48;154.07;;;10.80;;
5630;SDS011;2837;50.990;7.124;2022-08-21T05:09:16;154.30;;;11.67;;
5630;SDS011;2837;50.990;7.124;2022-08-21T05:11:43;155.20;;;12.37;;
5630;SDS011;2837;50.990;7.124;2022-08-21T05:14:09;158.63;;;11.47;;
5630;SDS011;2837;50.990;7.124;2022-08-21T05:16:36;155.10;;;12.40;;
5630;SDS011;2837;50.990;7.124;2022-08-21T05:19:02;154.63;;;11.57;;
5630;SDS011;2837;50.990;7.124;2022-08-21T05:21:27;154.90;;;11.30;;
5630;SDS011;2837;50.990;7.124;2022-08-21T05:23:53;156.23;;;10.83;;
5630;SDS011;2837;50.990;7.124;2022-08-21T05:26:18;154.37;;;11.73;;
5630;SDS011;2837;50.990;7.124;2022-08-21T05:28:44;154.30;;;11.07;;
5630;SDS011;2837;50.990;7.124;2022-08-21T05:31:09;155.00;;;12.10;;
5630;SDS011;2837;50.990;7.124;2022-08-21T05:33:35;154.17;;;12.30;;
5630;SDS011;2837;50.990;7.124;2022-08-21T05:36:00;152.77;;;11.10;;
5630;SDS011;2837;50.990;7.124;2022-08-21T05:38:26;156.07;;;11.30;;
5630;SDS011;2837;50.990;7.124;2022-08-21T05:40:53;156.97;;;12.20;;
5630;SDS011;2837;50.990;7.124;2022-08-21T05:43:19;153.80;;;11.20;;
5630;SDS011;2837;50.990;7.124;2022-08-21T05:45:45;154.63;;;11.30;;
5630;SDS011;2837;50.990;7.124;2022-08-21T05:48:12;157.23;;;12.73;;
5630;SDS011;2837;50.990;7.124;2022-08-21T05:50:44;154.67;;;11.93;;
5630;SDS011;2837;50.990;7.124;2022-08-21T05:53:11;155.50;;;12.43;;
5630;SDS011;2837;50.990;7.124;2022-08-21T05:55:39;156.57;;;12.10;;
5630;SDS011;2837;50.990;7.124;2022-08-21T05:58:05;154.40;;;12.33;;
5630;SDS011;2837;50.990;7.124;2022-08-21T06:00:31;154.50;;;11.50;;
5630;SDS011;2837;50.990;7.124;2022-08-21T06:02:57;153.37;;;11.40;;
5630;SDS011;2837;50.990;7.124;2022-08-21T06:05:23;156.47;;;12.30;;
5630;SDS011;2837;50.990;7.124;2022-08-21T06:07:48;154.83;;;11.67;;
5630;SDS011;2837;50.990;7.124;2022-08-21T06:10:14;153.80;;;10.73;;
5630;SDS011;2837;50.990;7.124;2022-08-21T06:12:40;158.40;;;11.73;;
5630;SDS011;2837;50.990;7.124;2022-08-21T06:15:06;154.43;;;10.93;;
5630;SDS011;2837;50.990;7.124;2022-08-21T06:17:32;157.07;;;10.60;;
5630;SDS011;2837;50.990;7.124;2022-08-21T06:19:57;155.73;;;12.03;;
5630;SDS011;2837;50.990;7.124;2022-08-21T06:22:24;152.73;;;11.30;;
5630;SDS011;2837;50.990;7.124;2022-08-21T06:24:49;158.20;;;13.20;;
5630;SDS011;2837;50.990;7.124;2022-08-21T06:27:15;155.60;;;11.80;;
5630;SDS011;2837;50.990;7.124;2022-08-21T06:29:42;158.70;;;12.57;;
5630;SDS011;2837;50.990;7.124;2022-08-21T06:32:10;153.57;;;12.10;;
5630;SDS011;2837;50.990;7.124;2022-08-21T06:34:37;157.17;;;12.27;;
5630;SDS011;2837;50.990;7.124;2022-08-21T06:37:04;153.73;;;11.20;;
5630;SDS011;2837;50.990;7.124;2022-08-21T06:39:30;153.33;;;11.27;;
5630;SDS011;2837;50.990;7.124;2022-08-21T06:41:56;152.40;;;11.93;;
5630;SDS011;2837;50.990;7.124;2022-08-21T06:44:21;153.77;;;11.53;;
5630;SDS011;2837;50.990;7.124;2022-08-21T06:46:47;152.73;;;10.77;;
5630;SDS011;2837;50.990;7.124;2022-08-21T06:49:13;154.57;;;11.67;;
5630;SDS011;2837;50.990;7.124;2022-08-21T06:51:39;151.57;;;11.10;;
5630;SDS011;2837;50.990;7.124;2022-08-21T06:54:05;153.50;;;11.80;;
5630;SDS011;2837;50.990;7.124;2022-08-21T06:56:31;153.00;;;12.13;;
5630;SDS011;2837;50.990;7.124;2022-08-21T06:58:58;154.17;;;11.73;;
5630;SDS011;2837;50.990;7.124;2022-08-21T07:01:24;157.40;;;12.57;;
5630;SDS011;2837;50.990;7.124;2022-08-21T07:03:51;153.30;;;11.30;;
5630;SDS011;2837;50.990;7.124;2022-08-21T07:06:17;152.77;;;11.13;;
5630;SDS011;2837;50.990;7.124;2022-08-21T07:08:43;153.57;;;12.00;;
5630;SDS011;2837;50.990;7.124;2022-08-21T07:11:10;154.80;;;12.47;;
5630;SDS011;2837;50.990;7.124;2022-08-21T07:13:39;150.93;;;11.17;;
5630;SDS011;2837;50.990;7.124;2022-08-21T07:16:05;154.83;;;11.80;;
5630;SDS011;2837;50.990;7.124;2022-08-21T07:18:31;150.67;;;10.80;;
5630;SDS011;2837;50.990;7.124;2022-08-21T07:20:57;152.47;;;10.83;;
5630;SDS011;2837;50.990;7.124;2022-08-21T07:23:23;158.17;;;11.10;;
5630;SDS011;2837;50.990;7.124;2022-08-21T07:25:52;152.40;;;11.50;;
5630;SDS011;2837;50.990;7.124;2022-08-21T07:28:18;154.27;;;11.73;;
5630;SDS011;2837;50.990;7.124;2022-08-21T07:30:44;154.07;;;12.17;;
5630;SDS011;2837;50.990;7.124;2022-08-21T07:33:10;151.27;;;11.17;;
5630;SDS011;2837;50.990;7.124;2022-08-21T07:35:36;153.27;;;11.30;;
5630;SDS011;2837;50.990;7.124;2022-08-21T07:38:01;154.40;;;12.60;;
5630;SDS011;2837;50.990;7.124;2022-08-21T07:40:27;151.87;;;10.97;;
5630;SDS011;2837;50.990;7.124;2022-08-21T07:42:52;151.87;;;10.77;;
5630;SDS011;2837;50.990;7.124;2022-08-21T07:45:21;153.20;;;10.80;;
5630;SDS011;2837;50.990;7.124;2022-08-21T07:47:49;152.30;;;10.97;;
5630;SDS011;2837;50.990;7.124;2022-08-21T07:50:15;151.00;;;10.30;;
5630;SDS011;2837;50.990;7.124;2022-08-21T07:52:41;150.77;;;10.50;;
5630;SDS011;2837;50.990;7.124;2022-08-21T07:55:09;151.73;;;11.37;;
5630;SDS011;2837;50.990;7.124;2022-08-21T07:57:36;150.60;;;10.80;;
5630;SDS011;2837;50.990;7.124;2022-08-21T08:00:06;151.03;;;10.73;;
5630;SDS011;2837;50.990;7.124;2022-08-21T08:02:34;151.67;;;10.60;;
5630;SDS011;2837;50.990;7.124;2022-08-21T08:05:03;152.40;;;11.17;;
5630;SDS011;2837;50.990;7.124;2022-08-21T08:07:31;152.00;;;10.77;;
5630;SDS011;2837;50.990;7.124;2022-08-21T08:09:57;153.47;;;10.20;;
5630;SDS011;2837;50.990;7.124;2022-08-21T08:12:23;151.80;;;10.77;;
5630;SDS011;2837;50.990;7.124;2022-08-21T08:14:54;151.87;;;10.97;;
5630;SDS011;2837;50.990;7.124;2022-08-21T08:17:23;153.20;;;10.20;;
5630;SDS011;2837;50.990;7.124;2022-08-21T08:19:49;152.57;;;10.77;;
5630;SDS011;2837;50.990;7.124;2022-08-21T08:22:16;152.00;;;10.40;;
5630;SDS011;2837;50.990;7.124;2022-08-21T08:24:47;153.37;;;10.83;;
5630;SDS011;2837;50.990;7.124;2022-08-21T08:27:13;151.43;;;10.53;;
5630;SDS011;2837;50.990;7.124;2022-08-21T08:29:39;156.27;;;10.17;;
5630;SDS011;2837;50.990;7.124;2022-08-21T08:32:05;152.37;;;10.13;;
5630;SDS011;2837;50.990;7.124;2022-08-21T08:34:35;152.40;;;9.70;;
5630;SDS011;2837;50.990;7.124;2022-08-21T08:37:01;151.67;;;9.87;;
5630;SDS011;2837;50.990;7.124;2022-08-21T08:39:28;155.20;;;10.23;;
5630;SDS011;2837;50.990;7.124;2022-08-21T08:42:04;150.77;;;9.47;;
5630;SDS011;2837;50.990;7.124;2022-08-21T08:44:35;151.77;;;9.97;;
5630;SDS011;2837;50.990;7.124;2022-08-21T08:47:01;152.47;;;10.30;;
5630;SDS011;2837;50.990;7.124;2022-08-21T08:49:29;151.47;;;9.27;;
5630;SDS011;2837;50.990;7.124;2022-08-21T08:52:27;150.87;;;9.67;;
5630;SDS011;2837;50.990;7.124;2022-08-21T08:55:09;150.00;;;9.17;;
5630;SDS011;2837;50.990;7.124;2022-08-21T08:57:38;150.83;;;9.67;;
5630;SDS011;2837;50.990;7.124;2022-08-21T09:00:08;151.33;;;9.13;;
5630;SDS011;2837;50.990;7.124;2022-08-21T09:02:37;151.57;;;9.57;;
5630;SDS011;2837;50.990;7.124;2022-08-21T09:05:04;150.27;;;10.07;;
5630;SDS011;2837;50.990;7.124;2022-08-21T09:10:38;153.17;;;9.87;;
5630;SDS011;2837;50.990;7.124;2022-08-21T09:13:29;150.80;;;9.43;;
5630;SDS011;2837;50.990;7.124;2022-08-21T09:16:09;149.87;;;9.03;;
5630;SDS011;2837;50.990;7.124;2022-08-21T09:24:23;149.50;;;9.47;;
5630;SDS011;2837;50.990;7.124;2022-08-21T09:27:00;151.03;;;9.40;;
5630;SDS011;2837;50.990;7.124;2022-08-21T09:29:32;149.50;;;8.77;;
5630;SDS011;2837;50.990;7.124;2022-08-21T09:31:59;149.17;;;9.37;;
5630;SDS011;2837;50.990;7.124;2022-08-21T09:34:26;149.33;;;8.97;;
5630;SDS011;2837;50.990;7.124;2022-08-21T09:36:54;149.67;;;8.70;;
5630;SDS011;2837;50.990;7.124;2022-08-21T09:39:23;150.80;;;8.20;;
5630;SDS011;2837;50.990;7.124;2022-08-21T09:41:58;151.07;;;9.23;;
5630;SDS011;2837;50.990;7.124;2022-08-21T09:44:31;147.40;;;7.57;;
5630;SDS011;2837;50.990;7.124;2022-08-21T09:47:08;149.67;;;8.60;;
5630;SDS011;2837;50.990;7.124;2022-08-21T09:49:38;149.37;;;8.40;;
5630;SDS011;2837;50.990;7.124;2022-08-21T09:52:18;149.57;;;8.00;;
5630;SDS011;2837;50.990;7.124;2022-08-21T09:54:49;150.40;;;8.63;;
5630;SDS011;2837;50.990;7.124;2022-08-21T09:57:19;149.23;;;8.17;;
5630;SDS011;2837;50.990;7.124;2022-08-21T10:00:24;147.43;;;8.43;;
5630;SDS011;2837;50.990;7.124;2022-08-21T10:02:54;147.33;;;8.80;;
5630;SDS011;2837;50.990;7.124;2022-08-21T10:05:40;147.90;;;8.00;;
5630;SDS011;2837;50.990;7.124;2022-08-21T10:08:18;147.47;;;8.70;;
5630;SDS011;2837;50.990;7.124;2022-08-21T10:10:45;147.80;;;7.43;;
5630;SDS011;2837;50.990;7.124;2022-08-21T10:13:20;147.67;;;8.03;;
5630;SDS011;2837;50.990;7.124;2022-08-21T10:18:39;147.37;;;7.93;;
5630;SDS011;2837;50.990;7.124;2022-08-21T10:26:39;149.30;;;8.83;;
5630;SDS011;2837;50.990;7.124;2022-08-21T10:35:14;146.90;;;8.30;;
5630;SDS011;2837;50.990;7.124;2022-08-21T10:45:29;149.17;;;8.47;;
5630;SDS011;2837;50.990;7.124;2022-08-21T10:48:06;148.13;;;8.13;;
5630;SDS011;2837;50.990;7.124;2022-08-21T10:50:55;147.43;;;8.40;;
5630;SDS011;2837;50.990;7.124;2022-08-21T10:58:44;148.00;;;7.87;;
5630;SDS011;2837;50.990;7.124;2022-08-21T11:01:19;147.17;;;8.20;;
5630;SDS011;2837;50.990;7.124;2022-08-21T11:03:54;146.50;;;7.60;;
5630;SDS011;2837;50.990;7.124;2022-08-21T11:06:42;146.87;;;8.00;;
5630;SDS011;2837;50.990;7.124;2022-08-21T11:09:14;150.07;;;8.87;;
5630;SDS011;2837;50.990;7.124;2022-08-21T11:11:47;146.57;;;7.90;;
5630;SDS011;2837;50.990;7.124;2022-08-21T11:17:12;149.77;;;8.20;;
5630;SDS011;2837;50.990;7.124;2022-08-21T11:19:48;147.17;;;7.87;;
5630;SDS011;2837;50.990;7.124;2022-08-21T11:22:21;152.47;;;8.43;;
5630;SDS011;2837;50.990;7.124;2022-08-21T11:27:40;146.47;;;8.60;;
5630;SDS011;2837;50.990;7.124;2022-08-21T11:30:11;146.67;;;8.00;;
5630;SDS011;2837;50.990;7.124;2022-08-21T11:43:27;146.73;;;7.60;;
5630;SDS011;2837;50.990;7.124;2022-08-21T11:57:32;145.50;;;7.60;;
5630;SDS011;2837;50.990;7.124;2022-08-21T12:00:47;145.70;;;7.70;;
5630;SDS011;2837;50.990;7.124;2022-08-21T12:03:09;146.13;;;7.80;;
5630;SDS011;2837;50.990;7.124;2022-08-21T12:05:40;149.67;;;8.97;;
5630;SDS011;2837;50.990;7.124;2022-08-21T12:10:37;146.90;;;8.20;;
5630;SDS011;2837;50.990;7.124;2022-08-21T12:13:11;146.90;;;7.60;;
5630;SDS011;2837;50.990;7.124;2022-08-21T12:17:03;146.60;;;7.97;;
5630;SDS011;2837;50.990;7.124;2022-08-21T12:21:47;145.37;;;7.50;;
5630;SDS011;2837;50.990;7.124;2022-08-21T12:24:41;145.23;;;7.30;;
5630;SDS011;2837;50.990;7.124;2022-08-21T12:29:50;144.43;;;7.80;;
5630;SDS011;2837;50.990;7.124;2022-08-21T12:34:57;145.23;;;7.80;;
5630;SDS011;2837;50.990;7.124;2022-08-21T12:37:38;145.37;;;7.87;;
5630;SDS011;2837;50.990;7.124;2022-08-21T12:40:23;145.30;;;7.73;;
5630;SDS011;2837;50.990;7.124;2022-08-21T12:42:54;145.67;;;7.80;;
5630;SDS011;2837;50.990;7.124;2022-08-21T12:45:28;145.57;;;7.40;;
5630;SDS011;2837;50.990;7.124;2022-08-21T12:50:42;145.40;;;7.23;;
5630;SDS011;2837;50.990;7.124;2022-08-21T12:53:34;146.63;;;7.47;;
5630;SDS011;2837;50.990;7.124;2022-08-21T12:56:10;145.27;;;7.63;;
5630;SDS011;2837;50.990;7.124;2022-08-21T12:58:40;145.37;;;7.30;;
5630;SDS011;2837;50.990;7.124;2022-08-21T13:01:15;144.07;;;7.00;;
5630;SDS011;2837;50.990;7.124;2022-08-21T13:04:01;145.97;;;8.23;;
5630;SDS011;2837;50.990;7.124;2022-08-21T13:06:29;145.57;;;8.00;;
5630;SDS011;2837;50.990;7.124;2022-08-21T13:09:04;145.77;;;7.83;;
5630;SDS011;2837;50.990;7.124;2022-08-21T13:11:32;143.50;;;7.07;;
5630;SDS011;2837;50.990;7.124;2022-08-21T13:13:58;145.97;;;7.90;;
5630;SDS011;2837;50.990;7.124;2022-08-21T13:16:27;144.20;;;8.03;;
5630;SDS011;2837;50.990;7.124;2022-08-21T13:19:04;144.00;;;7.40;;
5630;SDS011;2837;50.990;7.124;2022-08-21T13:21:38;144.67;;;7.40;;
5630;SDS011;2837;50.990;7.124;2022-08-21T13:24:13;147.57;;;7.60;;
5630;SDS011;2837;50.990;7.124;2022-08-21T13:26:44;146.30;;;7.93;;
5630;SDS011;2837;50.990;7.124;2022-08-21T13:29:11;144.70;;;6.93;;
5630;SDS011;2837;50.990;7.124;2022-08-21T13:31:40;144.27;;;6.93;;
5630;SDS011;2837;50.990;7.124;2022-08-21T13:34:12;144.50;;;6.97;;
5630;SDS011;2837;50.990;7.124;2022-08-21T13:36:41;144.80;;;7.00;;
5630;SDS011;2837;50.990;7.124;2022-08-21T13:39:08;143.10;;;6.53;;
5630;SDS011;2837;50.990;7.124;2022-08-21T13:41:40;143.50;;;7.63;;
5630;SDS011;2837;50.990;7.124;2022-08-21T13:44:22;143.47;;;7.30;;
5630;SDS011;2837;50.990;7.124;2022-08-21T13:46:56;148.83;;;7.57;;
5630;SDS011;2837;50.990;7.124;2022-08-21T13:49:27;144.20;;;7.07;;
5630;SDS011;2837;50.990;7.124;2022-08-21T13:51:59;145.17;;;7.07;;
5630;SDS011;2837;50.990;7.124;2022-08-21T13:57:14;142.87;;;7.10;;
5630;SDS011;2837;50.990;7.124;2022-08-21T14:00:09;145.17;;;7.47;;
5630;SDS011;2837;50.990;7.124;2022-08-21T14:02:40;143.37;;;7.63;;
5630;SDS011;2837;50.990;7.124;2022-08-21T14:05:14;143.37;;;7.73;;
5630;SDS011;2837;50.990;7.124;2022-08-21T14:07:44;143.60;;;7.07;;
5630;SDS011;2837;50.990;7.124;2022-08-21T14:10:20;142.37;;;6.90;;
5630;SDS011;2837;50.990;7.124;2022-08-21T14:12:49;143.03;;;7.43;;
5630;SDS011;2837;50.990;7.124;2022-08-21T14:15:24;144.87;;;7.53;;
5630;SDS011;2837;50.990;7.124;2022-08-21T14:17:53;142.67;;;7.60;;
5630;SDS011;2837;50.990;7.124;2022-08-21T14:20:30;144.20;;;7.23;;
5630;SDS011;2837;50.990;7.124;2022-08-21T14:22:58;144.00;;;6.90;;
5630;SDS011;2837;50.990;7.124;2022-08-21T14:27:51;142.77;;;7.00;;
5630;SDS011;2837;50.990;7.124;2022-08-21T14:30:31;143.77;;;7.57;;
5630;SDS011;2837;50.990;7.124;2022-08-21T14:32:58;142.47;;;7.60;;
5630;SDS011;2837;50.990;7.124;2022-08-21T14:35:25;142.47;;;6.40;;
5630;SDS011;2837;50.990;7.124;2022-08-21T14:37:51;143.50;;;6.80;;
5630;SDS011;2837;50.990;7.124;2022-08-21T14:40:19;144.07;;;7.23;;
5630;SDS011;2837;50.990;7.124;2022-08-21T14:42:46;142.90;;;6.83;;
5630;SDS011;2837;50.990;7.124;2022-08-21T14:45:15;144.80;;;8.03;;
5630;SDS011;2837;50.990;7.124;2022-08-21T14:47:45;144.37;;;6.90;;
5630;SDS011;2837;50.990;7.124;2022-08-21T14:50:11;144.20;;;7.07;;
5630;SDS011;2837;50.990;7.124;2022-08-21T14:52:37;145.07;;;7.50;;
5630;SDS011;2837;50.990;7.124;2022-08-21T14:55:04;143.67;;;7.37;;
5630;SDS011;2837;50.990;7.124;2022-08-21T14:57:31;143.67;;;7.10;;
5630;SDS011;2837;50.990;7.124;2022-08-21T14:59:57;143.13;;;7.33;;
5630;SDS011;2837;50.990;7.124;2022-08-21T15:02:24;142.77;;;7.43;;
5630;SDS011;2837;50.990;7.124;2022-08-21T15:04:50;144.17;;;7.90;;
5630;SDS011;2837;50.990;7.124;2022-08-21T15:07:15;145.13;;;7.33;;
5630;SDS011;2837;50.990;7.124;2022-08-21T15:09:41;145.27;;;8.07;;
5630;SDS011;2837;50.990;7.124;2022-08-21T15:12:07;142.13;;;6.53;;
5630;SDS011;2837;50.990;7.124;2022-08-21T15:14:33;145.30;;;8.27;;
5630;SDS011;2837;50.990;7.124;2022-08-21T15:17:01;145.30;;;6.87;;
5630;SDS011;2837;50.990;7.124;2022-08-21T15:19:28;143.97;;;7.47;;
5630;SDS011;2837;50.990;7.124;2022-08-21T15:21:55;143.40;;;7.47;;
5630;SDS011;2837;50.990;7.124;2022-08-21T15:24:21;143.40;;;7.00;;
5630;SDS011;2837;50.990;7.124;2022-08-21T15:26:47;142.40;;;7.10;;
5630;SDS011;2837;50.990;7.124;2022-08-21T15:29:13;142.47;;;6.40;;
5630;SDS011;2837;50.990;7.124;2022-08-21T15:31:50;144.47;;;7.63;;
5630;SDS011;2837;50.990;7.124;2022-08-21T15:34:20;146.60;;;8.00;;
5630;SDS011;2837;50.990;7.124;2022-08-21T15:36:46;145.37;;;7.97;;
5630;SDS011;2837;50.990;7.124;2022-08-21T15:39:12;144.30;;;7.23;;
5630;SDS011;2837;50.990;7.124;2022-08-21T15:41:37;143.97;;;8.00;;
5630;SDS011;2837;50.990;7.124;2022-08-21T15:44:03;143.27;;;7.20;;
5630;SDS011;2837;50.990;7.124;2022-08-21T15:46:29;143.77;;;7.97;;
5630;SDS011;2837;50.990;7.124;2022-08-21T15:48:54;142.57;;;7.07;;
5630;SDS011;2837;50.990;7.124;2022-08-21T15:51:20;144.87;;;7.20;;
5630;SDS011;2837;50.990;7.124;2022-08-21T15:53:46;142.77;;;6.90;;
5630;SDS011;2837;50.990;7.124;2022-08-21T15:56:18;142.13;;;6.47;;
5630;SDS011;2837;50.990;7.124;2022-08-21T15:58:48;142.87;;;7.03;;
5630;SDS011;2837;50.990;7.124;2022-08-21T16:01:15;144.03;;;7.57;;
5630;SDS011;2837;50.990;7.124;2022-08-21T16:03:41;143.13;;;7.30;;
5630;SDS011;2837;50.990;7.124;2022-08-21T16:06:09;143.00;;;6.70;;
5630;SDS011;2837;50.990;7.124;2022-08-21T16:08:34;142.00;;;6.60;;
5630;SDS011;2837;50.990;7.124;2022-08-21T16:11:00;143.40;;;7.70;;
5630;SDS011;2837;50.990;7.124;2022-08-21T16:13:27;143.10;;;6.90;;
5630;SDS011;2837;50.990;7.124;2022-08-21T16:15:56;146.03;;;7.83;;
5630;SDS011;2837;50.990;7.124;2022-08-21T16:18:22;144.70;;;6.83;;
5630;SDS011;2837;50.990;7.124;2022-08-21T16:20:48;145.17;;;7.03;;
5630;SDS011;2837;50.990;7.124;2022-08-21T16:23:14;142.13;;;6.63;;
5630;SDS011;2837;50.990;7.124;2022-08-21T16:25:40;142.70;;;7.20;;
5630;SDS011;2837;50.990;7.124;2022-08-21T16:28:07;144.00;;;6.87;;
5630;SDS011;2837;50.990;7.124;2022-08-21T16:30:35;144.47;;;7.33;;
5630;SDS011;2837;50.990;7.124;2022-08-21T16:33:01;142.17;;;6.70;;
5630;SDS011;2837;50.990;7.124;2022-08-21T16:35:29;142.87;;;7.30;;
5630;SDS011;2837;50.990;7.124;2022-08-21T16:37:55;143.57;;;6.90;;
5630;SDS011;2837;50.990;7.124;2022-08-21T16:40:21;144.17;;;7.50;;
5630;SDS011;2837;50.990;7.124;2022-08-21T16:42:47;141.80;;;6.60;;
5630;SDS011;2837;50.990;7.124;2022-08-21T16:45:15;143.17;;;6.80;;
5630;SDS011;2837;50.990;7.124;2022-08-21T16:47:44;143.67;;;7.83;;
5630;SDS011;2837;50.990;7.124;2022-08-21T16:50:10;143.33;;;7.80;;
5630;SDS011;2837;50.990;7.124;2022-08-21T16:52:39;142.60;;;7.30;;
5630;SDS011;2837;50.990;7.124;2022-08-21T16:55:05;142.18;;;7.80;;
5630;SDS011;2837;50.990;7.124;2022-08-21T16:57:31;144.03;;;7.37;;
5630;SDS011;2837;50.990;7.124;2022-08-21T16:59:57;144.57;;;7.87;;
5630;SDS011;2837;50.990;7.124;2022-08-21T17:02:32;142.47;;;6.60;;
5630;SDS011;2837;50.990;7.124;2022-08-21T17:05:00;142.80;;;7.30;;
5630;SDS011;2837;50.990;7.124;2022-08-21T17:07:26;144.07;;;7.37;;
5630;SDS011;2837;50.990;7.124;2022-08-21T17:09:52;142.93;;;6.93;;
5630;SDS011;2837;50.990;7.124;2022-08-21T17:12:18;142.97;;;7.77;;
5630;SDS011;2837;50.990;7.124;2022-08-21T17:14:43;147.60;;;8.47;;
5630;SDS011;2837;50.990;7.124;2022-08-21T17:17:09;144.00;;;8.23;;
5630;SDS011;2837;50.990;7.124;2022-08-21T17:19:36;144.90;;;8.10;;
5630;SDS011;2837;50.990;7.124;2022-08-21T17:22:02;143.40;;;8.30;;
5630;SDS011;2837;50.990;7.124;2022-08-21T17:24:28;145.87;;;7.30;;
5630;SDS011;2837;50.990;7.124;2022-08-21T17:26:54;142.67;;;7.30;;
5630;SDS011;2837;50.990;7.124;2022-08-21T17:29:23;142.77;;;7.23;;
5630;SDS011;2837;50.990;7.124;2022-08-21T17:31:52;142.47;;;6.80;;
5630;SDS011;2837;50.990;7.124;2022-08-21T17:34:18;148.53;;;8.03;;
5630;SDS011;2837;50.990;7.124;2022-08-21T17:36:44;143.87;;;7.50;;
5630;SDS011;2837;50.990;7.124;2022-08-21T17:39:10;145.17;;;8.17;;
5630;SDS011;2837;50.990;7.124;2022-08-21T17:41:38;142.80;;;7.00;;
5630;SDS011;2837;50.990;7.124;2022-08-21T17:44:05;143.90;;;6.63;;
5630;SDS011;2837;50.990;7.124;2022-08-21T17:46:34;142.87;;;7.03;;
5630;SDS011;2837;50.990;7.124;2022-08-21T17:49:02;144.27;;;8.10;;
5630;SDS011;2837;50.990;7.124;2022-08-21T17:51:29;143.40;;;7.97;;
5630;SDS011;2837;50.990;7.124;2022-08-21T17:53:55;144.47;;;7.63;;
5630;SDS011;2837;50.990;7.124;2022-08-21T17:56:21;142.47;;;7.43;;
5630;SDS011;2837;50.990;7.124;2022-08-21T17:58:52;143.47;;;7.67;;
5630;SDS011;2837;50.990;7.124;2022-08-21T18:01:18;143.50;;;7.30;;
5630;SDS011;2837;50.990;7.124;2022-08-21T18:03:44;143.77;;;7.40;;
5630;SDS011;2837;50.990;7.124;2022-08-21T18:06:11;144.10;;;6.90;;
5630;SDS011;2837;50.990;7.124;2022-08-21T18:08:37;144.00;;;6.60;;
5630;SDS011;2837;50.990;7.124;2022-08-21T18:11:03;142.87;;;7.03;;
5630;SDS011;2837;50.990;7.124;2022-08-21T18:13:30;143.90;;;7.57;;
5630;SDS011;2837;50.990;7.124;2022-08-21T18:15:59;142.80;;;6.97;;
5630;SDS011;2837;50.990;7.124;2022-08-21T18:18:26;142.53;;;6.47;;
5630;SDS011;2837;50.990;7.124;2022-08-21T18:20:54;142.33;;;7.47;;
5630;SDS011;2837;50.990;7.124;2022-08-21T18:23:20;143.60;;;7.43;;
5630;SDS011;2837;50.990;7.124;2022-08-21T18:25:50;144.03;;;7.70;;
5630;SDS011;2837;50.990;7.124;2022-08-21T18:28:19;143.47;;;7.30;;
5630;SDS011;2837;50.990;7.124;2022-08-21T18:30:45;144.77;;;8.23;;
5630;SDS011;2837;50.990;7.124;2022-08-21T18:33:11;143.77;;;7.67;;
5630;SDS011;2837;50.990;7.124;2022-08-21T18:35:38;143.50;;;7.97;;
5630;SDS011;2837;50.990;7.124;2022-08-21T18:38:05;144.57;;;7.67;;
5630;SDS011;2837;50.990;7.124;2022-08-21T18:40:31;144.10;;;7.03;;
5630;SDS011;2837;50.990;7.124;2022-08-21T18:42:58;144.70;;;7.90;;
5630;SDS011;2837;50.990;7.124;2022-08-21T18:45:25;145.10;;;7.23;;
5630;SDS011;2837;50.990;7.124;2022-08-21T18:47:52;144.77;;;7.60;;
5630;SDS011;2837;50.990;7.124;2022-08-21T18:50:22;144.00;;;6.80;;
5630;SDS011;2837;50.990;7.124;2022-08-21T18:52:49;143.97;;;7.10;;
5630;SDS011;2837;50.990;7.124;2022-08-21T18:55:15;144.00;;;7.00;;
5630;SDS011;2837;50.990;7.124;2022-08-21T18:57:42;143.80;;;7.53;;
5630;SDS011;2837;50.990;7.124;2022-08-21T19:00:09;143.90;;;7.77;;
5630;SDS011;2837;50.990;7.124;2022-08-21T19:02:41;142.87;;;6.97;;
5630;SDS011;2837;50.990;7.124;2022-08-21T19:05:08;144.87;;;7.50;;
5630;SDS011;2837;50.990;7.124;2022-08-21T19:07:36;145.07;;;6.83;;
5630;SDS011;2837;50.990;7.124;2022-08-21T19:10:03;147.83;;;8.13;;
5630;SDS011;2837;50.990;7.124;2022-08-21T19:12:30;144.90;;;7.07;;
5630;SDS011;2837;50.990;7.124;2022-08-21T19:14:57;143.20;;;7.03;;
5630;SDS011;2837;50.990;7.124;2022-08-21T19:17:23;143.77;;;7.20;;
5630;SDS011;2837;50.990;7.124;2022-08-21T19:19:49;145.47;;;7.30;;
5630;SDS011;2837;50.990;7.124;2022-08-21T19:22:15;145.07;;;7.13;;
5630;SDS011;2837;50.990;7.124;2022-08-21T19:24:40;143.77;;;7.33;;
5630;SDS011;2837;50.990;7.124;2022-08-21T19:27:07;144.10;;;7.60;;
5630;SDS011;2837;50.990;7.124;2022-08-21T19:29:34;145.07;;;7.93;;
5630;SDS011;2837;50.990;7.124;2022-08-21T19:32:05;144.03;;;6.87;;
5630;SDS011;2837;50.990;7.124;2022-08-21T19:34:31;144.07;;;6.67;;
5630;SDS011;2837;50.990;7.124;2022-08-21T19:36:58;144.20;;;7.00;;
5630;SDS011;2837;50.990;7.124;2022-08-21T19:39:25;144.17;;;7.17;;
5630;SDS011;2837;50.990;7.124;2022-08-21T19:41:53;145.13;;;7.40;;
5630;SDS011;2837;50.990;7.124;2022-08-21T19:44:22;144.80;;;7.30;;
5630;SDS011;2837;50.990;7.124;2022-08-21T19:46:50;146.90;;;8.13;;
5630;SDS011;2837;50.990;7.124;2022-08-21T19:49:18;144.57;;;7.10;;
5630;SDS011;2837;50.990;7.124;2022-08-21T19:51:46;145.37;;;7.30;;
5630;SDS011;2837;50.990;7.124;2022-08-21T19:54:16;144.97;;;6.60;;
5630;SDS011;2837;50.990;7.124;2022-08-21T19:56:50;143.77;;;6.67;;
5630;SDS011;2837;50.990;7.124;2022-08-21T19:59:18;145.60;;;7.50;;
5630;SDS011;2837;50.990;7.124;2022-08-21T20:01:45;145.47;;;7.57;;
5630;SDS011;2837;50.990;7.124;2022-08-21T20:04:11;145.13;;;7.57;;
5630;SDS011;2837;50.990;7.124;2022-08-21T20:06:37;144.97;;;8.03;;
5630;SDS011;2837;50.990;7.124;2022-08-21T20:09:03;144.80;;;6.97;;
5630;SDS011;2837;50.990;7.124;2022-08-21T20:11:35;145.60;;;7.33;;
5630;SDS011;2837;50.990;7.124;2022-08-21T20:14:07;146.90;;;7.50;;
5630;SDS011;2837;50.990;7.124;2022-08-21T20:16:34;144.37;;;7.53;;
5630;SDS011;2837;50.990;7.124;2022-08-21T20:19:00;148.37;;;8.10;;
5630;SDS011;2837;50.990;7.124;2022-08-21T20:21:28;145.87;;;7.60;;
5630;SDS011;2837;50.990;7.124;2022-08-21T20:23:55;145.50;;;7.10;;
5630;SDS011;2837;50.990;7.124;2022-08-21T20:26:21;146.40;;;7.80;;
5630;SDS011;2837;50.990;7.124;2022-08-21T20:28:47;145.63;;;7.93;;
5630;SDS011;2837;50.990;7.124;2022-08-21T20:31:12;145.30;;;7.30;;
5630;SDS011;2837;50.990;7.124;2022-08-21T20:33:41;145.50;;;7.83;;
5630;SDS011;2837;50.990;7.124;2022-08-21T20:36:07;146.10;;;7.47;;
5630;SDS011;2837;50.990;7.124;2022-08-21T20:38:33;145.77;;;7.80;;
5630;SDS011;2837;50.990;7.124;2022-08-21T20:40:58;148.57;;;7.80;;
5630;SDS011;2837;50.990;7.124;2022-08-21T20:43:25;146.90;;;7.73;;
5630;SDS011;2837;50.990;7.124;2022-08-21T20:45:51;145.97;;;8.30;;
5630;SDS011;2837;50.990;7.124;2022-08-21T20:48:23;144.97;;;7.90;;
5630;SDS011;2837;50.990;7.124;2022-08-21T20:51:15;148.77;;;8.37;;
